Time;durP1;ratioP1;P1;durP2;ratioP2;P2;SDS_P1;SDS_P2;PMS_P1;PMS_P2;Temp;Humidity;BMP_temperature;BMP_pressure;BME280_temperature;BME280_humidity;BME280_pressure;Samples;Min_cycle;Max_cycle;Signal;HPM_P1;HPM_P2
2023/06/03 00:00:08;;;;;;;2.63;2.00;;;;;;;7.28;100.00;99030.22;4159600;28;20103;-71
2023/06/03 00:02:09;;;;;;;5.18;2.10;;;;;;;7.25;100.00;99028.97;4161053;28;20029;-71
2023/06/03 00:04:11;;;;;;;4.10;2.05;;;;;;;7.22;100.00;99029.69;4160698;28;20037;-71
2023/06/03 00:06:12;;;;;;;4.00;2.03;;;;;;;7.21;100.00;99032.78;4160343;28;20424;-71
2023/06/03 00:08:13;;;;;;;4.45;1.90;;;;;;;7.21;100.00;99032.78;4162110;28;20044;-71
2023/06/03 00:10:13;;;;;;;2.95;1.70;;;;;;;7.18;100.00;99031.50;4161915;28;20104;-71
2023/06/03 00:12:14;;;;;;;3.22;1.63;;;;;;;7.20;100.00;99039.41;4159827;28;20041;-71
2023/06/03 00:14:14;;;;;;;3.22;1.60;;;;;;;7.19;100.00;99032.28;4160135;28;20269;-71
2023/06/03 00:16:15;;;;;;;3.17;1.60;;;;;;;7.17;100.00;99040.91;4161343;28;20037;-71
2023/06/03 00:18:15;;;;;;;5.35;1.63;;;;;;;7.12;100.00;99041.13;4160685;28;20481;-71
2023/06/03 00:20:16;;;;;;;2.55;1.60;;;;;;;7.06;100.00;99033.44;4160535;28;20366;-71
2023/06/03 00:22:16;;;;;;;3.95;1.50;;;;;;;7.04;100.00;99040.09;4160507;28;20041;-71
2023/06/03 00:24:19;;;;;;;2.17;1.33;;;;;;;7.04;100.00;99034.59;4160018;28;20029;-71
2023/06/03 00:26:22;;;;;;;4.60;1.65;;;;;;;7.14;99.18;99041.59;4160824;28;20053;-71
2023/06/03 00:28:22;;;;;;;4.32;1.85;;;;;;;7.22;98.37;99037.94;4161034;28;20045;-71
2023/06/03 00:30:22;;;;;;;5.70;1.83;;;;;;;7.27;97.46;99039.63;4160675;28;20562;-70
2023/06/03 00:32:23;;;;;;;4.07;1.40;;;;;;;7.33;97.19;99039.06;4159791;28;20046;-70
2023/06/03 00:34:23;;;;;;;2.95;1.60;;;;;;;7.40;97.29;99033.00;4159682;28;20147;-70
2023/06/03 00:36:23;;;;;;;2.10;1.27;;;;;;;7.38;97.26;99037.25;4160965;28;20052;-70
2023/06/03 00:38:23;;;;;;;2.10;1.48;;;;;;;7.28;98.17;99044.81;4160140;28;20039;-70
2023/06/03 00:40:24;;;;;;;4.70;1.80;;;;;;;7.16;99.42;99035.75;4160277;28;20484;-70
2023/06/03 00:42:24;;;;;;;3.65;1.83;;;;;;;7.06;100.00;99033.44;4159875;28;20111;-70
2023/06/03 00:44:24;;;;;;;3.50;1.75;;;;;;;6.92;100.00;99034.53;4160153;28;20103;-70
2023/06/03 00:46:25;;;;;;;2.22;1.48;;;;;;;6.83;100.00;99041.28;4160316;28;20286;-70
2023/06/03 00:48:26;;;;;;;3.97;2.15;;;;;;;6.69;100.00;99042.38;4160301;28;20658;-70
2023/06/03 00:50:28;;;;;;;3.20;1.60;;;;;;;6.63;100.00;99045.69;4159705;28;20049;-70
2023/06/03 00:52:28;;;;;;;3.60;1.60;;;;;;;6.51;100.00;99040.13;4159684;28;20091;-70
2023/06/03 00:54:29;;;;;;;3.00;1.63;;;;;;;6.44;100.00;99043.41;4160079;28;20038;-70
2023/06/03 00:56:38;;;;;;;2.65;1.70;;;;;;;6.32;100.00;99040.63;4160013;28;20539;-71
2023/06/03 00:58:39;;;;;;;1.80;1.45;;;;;;;6.25;100.00;99041.16;4160182;28;20085;-71
2023/06/03 01:00:39;;;;;;;3.55;1.77;;;;;;;6.17;100.00;99048.31;4160131;28;20053;-71
2023/06/03 01:02:43;;;;;;;3.17;1.77;;;;;;;6.11;100.00;99046.09;4159267;28;20034;-71
2023/06/03 01:04:46;;;;;;;3.22;1.50;;;;;;;6.09;100.00;99051.13;4159056;28;20050;-71
2023/06/03 01:07:25;;;;;;;2.92;1.70;;;;;;;6.06;100.00;99047.13;4159387;28;20041;-71
2023/06/03 01:09:33;;;;;;;3.22;1.55;;;;;;;6.07;100.00;99048.72;4160491;28;20099;-70
2023/06/03 01:11:44;;;;;;;2.65;1.70;;;;;;;6.07;100.00;99053.44;4160192;28;20052;-70
2023/06/03 01:13:51;;;;;;;2.55;1.50;;;;;;;6.03;100.00;99045.03;4159090;28;20465;-70
2023/06/03 01:15:55;;;;;;;2.90;1.27;;;;;;;6.03;100.00;99044.22;4159464;28;20385;-70
2023/06/03 01:18:00;;;;;;;3.13;1.80;;;;;;;5.99;100.00;99040.56;4159897;28;20253;-70
2023/06/03 01:20:03;;;;;;;3.42;2.17;;;;;;;5.96;100.00;99050.28;4159597;28;20046;-70
2023/06/03 01:22:07;;;;;;;5.72;1.67;;;;;;;5.99;100.00;99049.59;4159434;28;20025;-70
2023/06/03 01:24:17;;;;;;;2.88;1.70;;;;;;;5.94;100.00;99048.97;4159090;28;20034;-70
2023/06/03 01:26:19;;;;;;;4.10;1.90;;;;;;;5.91;100.00;99055.97;4159664;28;20020;-70
2023/06/03 01:28:20;;;;;;;2.15;1.48;;;;;;;5.87;100.00;99055.75;4159638;28;20036;-70
2023/06/03 01:30:20;;;;;;;3.55;1.80;;;;;;;5.83;100.00;99054.84;4159592;28;20171;-70
2023/06/03 01:32:21;;;;;;;2.25;1.73;;;;;;;5.81;100.00;99053.56;4159606;28;20091;-70
2023/06/03 01:34:22;;;;;;;3.83;1.70;;;;;;;5.76;100.00;99048.25;4158578;28;20045;-70
2023/06/03 01:36:22;;;;;;;3.50;1.80;;;;;;;5.73;100.00;99054.44;4160920;28;20087;-70
2023/06/03 01:38:23;;;;;;;5.90;2.00;;;;;;;5.64;100.00;99052.53;4159643;28;20328;-70
2023/06/03 01:40:23;;;;;;;2.85;1.70;;;;;;;5.59;100.00;99046.41;4159743;28;20486;-70
2023/06/03 01:42:24;;;;;;;2.72;1.65;;;;;;;5.56;100.00;99050.63;4158782;28;20107;-70
2023/06/03 01:44:24;;;;;;;3.47;1.52;;;;;;;5.52;100.00;99052.41;4159082;28;20052;-70
2023/06/03 01:46:24;;;;;;;5.03;1.95;;;;;;;5.47;100.00;99055.38;4159514;28;20037;-70
2023/06/03 01:48:25;;;;;;;2.92;1.60;;;;;;;5.45;100.00;99052.13;4158845;28;20401;-70
2023/06/03 01:50:25;;;;;;;3.65;1.48;;;;;;;5.44;100.00;99052.47;4159586;28;20080;-70
2023/06/03 01:52:26;;;;;;;3.55;1.85;;;;;;;5.42;100.00;99054.75;4159247;28;20052;-70
2023/06/03 01:54:27;;;;;;;2.70;1.67;;;;;;;5.38;100.00;99053.78;4158644;28;20038;-70
2023/06/03 01:56:28;;;;;;;3.25;1.50;;;;;;;5.32;100.00;99059.47;4159331;28;20040;-70
2023/06/03 01:58:28;;;;;;;2.97;1.67;;;;;;;5.32;100.00;99059.47;4159308;28;20054;-71
2023/06/03 02:00:29;;;;;;;4.13;1.80;;;;;;;5.27;100.00;99056.09;4159308;28;20541;-70
2023/06/03 02:02:29;;;;;;;3.78;1.55;;;;;;;5.23;100.00;99057.88;4158323;28;20060;-70
2023/06/03 02:04:30;;;;;;;2.22;1.55;;;;;;;5.20;100.00;99053.84;4159112;28;20088;-70
2023/06/03 02:06:30;;;;;;;3.60;1.70;;;;;;;5.14;100.00;99046.94;4159205;28;20041;-70
2023/06/03 02:08:31;;;;;;;3.88;1.85;;;;;;;5.11;100.00;99057.75;4158811;28;20129;-70
2023/06/03 02:10:31;;;;;;;2.13;1.63;;;;;;;5.15;100.00;99058.72;4160298;28;20116;-70
2023/06/03 02:12:31;;;;;;;2.53;1.63;;;;;;;5.18;100.00;99052.56;4158332;28;20148;-70
2023/06/03 02:14:37;;;;;;;3.85;1.50;;;;;;;5.21;100.00;99051.91;4158630;28;20048;-70
2023/06/03 02:16:38;;;;;;;3.47;1.67;;;;;;;5.14;100.00;99057.13;4157812;28;20517;-70
2023/06/03 02:18:39;;;;;;;2.55;1.45;;;;;;;5.16;100.00;99054.84;4158085;28;20510;-70
2023/06/03 02:20:40;;;;;;;3.67;1.75;;;;;;;5.08;100.00;99056.47;4158985;28;20089;-70
2023/06/03 02:22:41;;;;;;;5.30;1.60;;;;;;;5.12;100.00;99049.19;4158226;28;20053;-70
2023/06/03 02:24:41;;;;;;;2.67;1.60;;;;;;;5.06;100.00;99056.00;4158424;28;20049;-70
2023/06/03 02:26:49;;;;;;;3.90;1.73;;;;;;;5.01;100.00;99051.50;4158519;28;20111;-70
2023/06/03 02:28:50;;;;;;;3.50;1.83;;;;;;;4.99;100.00;99053.75;4158517;28;20103;-70
2023/06/03 02:30:50;;;;;;;6.28;1.70;;;;;;;4.94;100.00;99045.69;4158963;28;20045;-70
2023/06/03 02:32:50;;;;;;;2.10;1.45;;;;;;;4.90;100.00;99053.00;4157461;28;20132;-70
2023/06/03 02:34:51;;;;;;;4.80;1.90;;;;;;;4.87;100.00;99050.06;4158746;28;20040;-70
2023/06/03 02:36:52;;;;;;;5.65;1.58;;;;;;;4.85;100.00;99049.59;4159002;28;20903;-70
2023/06/03 02:38:52;;;;;;;4.32;1.58;;;;;;;4.82;100.00;99048.31;4158514;28;20034;-70
2023/06/03 02:40:52;;;;;;;7.97;2.08;;;;;;;4.75;100.00;99046.06;4158060;28;20502;-70
2023/06/03 02:42:53;;;;;;;4.82;1.75;;;;;;;4.73;100.00;99048.34;4157837;28;20132;-70
2023/06/03 02:44:53;;;;;;;3.15;1.55;;;;;;;4.73;100.00;99053.03;4158618;28;20041;-70
2023/06/03 02:46:53;;;;;;;2.75;1.40;;;;;;;4.73;100.00;99056.56;4158427;28;20128;-70
2023/06/03 02:48:54;;;;;;;3.25;1.67;;;;;;;4.72;100.00;99045.94;4158049;28;20084;-70
2023/06/03 02:50:54;;;;;;;2.60;1.30;;;;;;;4.73;100.00;99045.59;4158534;28;20045;-70
2023/06/03 02:52:57;;;;;;;2.03;1.25;;;;;;;4.70;100.00;99048.97;4157711;28;20885;-70
2023/06/03 02:54:57;;;;;;;;;;;;;;;4.70;100.00;99048.19;4158952;28;20359;-70
2023/06/03 02:56:58;;;;;;;4.70;1.90;;;;;;;4.69;100.00;99052.06;4158255;28;20050;-70
2023/06/03 02:58:58;;;;;;;4.68;1.80;;;;;;;4.64;100.00;99041.28;4158226;28;20041;-70
2023/06/03 03:00:58;;;;;;;2.30;1.40;;;;;;;4.60;100.00;99045.78;4157988;28;20042;-70
2023/06/03 03:03:00;;;;;;;6.93;1.60;;;;;;;4.56;100.00;99048.38;4157158;28;20404;-70
2023/06/03 03:05:00;;;;;;;3.75;2.63;;;;;;;4.57;100.00;99049.97;4158587;28;20474;-70
2023/06/03 03:07:01;;;;;;;3.00;1.42;;;;;;;4.54;100.00;99041.59;4157925;28;20107;-70
2023/06/03 03:09:02;;;;;;;4.10;1.60;;;;;;;4.50;100.00;99045.00;4158060;28;20049;-70
2023/06/03 03:11:03;;;;;;;4.30;1.55;;;;;;;4.46;100.00;99045.94;4158219;28;20060;-70
2023/06/03 03:13:03;;;;;;;3.03;1.67;;;;;;;4.43;100.00;99043.88;4157574;28;20044;-70
2023/06/03 03:15:04;;;;;;;3.72;1.70;;;;;;;4.41;100.00;99052.41;4157652;28;20405;-70
2023/06/03 03:17:05;;;;;;;5.80;3.17;;;;;;;4.38;100.00;99047.56;4157808;28;20492;-70
2023/06/03 03:19:06;;;;;;;3.10;1.70;;;;;;;4.44;100.00;99054.50;4158497;28;20116;-70
2023/06/03 03:21:06;;;;;;;2.67;1.67;;;;;;;4.44;100.00;99051.75;4157987;28;20061;-70
2023/06/03 03:23:07;;;;;;;3.97;1.60;;;;;;;4.48;100.00;99052.72;4157523;28;20044;-70
2023/06/03 03:25:08;;;;;;;3.13;1.50;;;;;;;4.50;100.00;99050.47;4157919;28;20176;-70
2023/06/03 03:27:09;;;;;;;7.18;1.60;;;;;;;4.50;100.00;99055.94;4157594;28;20073;-70
2023/06/03 03:29:09;;;;;;;2.30;1.50;;;;;;;4.55;100.00;99062.38;4157933;28;20087;-70
2023/06/03 03:31:12;;;;;;;2.30;1.40;;;;;;;4.54;100.00;99063.50;4157508;28;20107;-70
2023/06/03 03:33:15;;;;;;;5.85;1.42;;;;;;;4.52;100.00;99061.09;4157453;28;20049;-70
2023/06/03 03:35:17;;;;;;;1.70;1.55;;;;;;;4.44;100.00;99067.41;4158010;28;20641;-70
2023/06/03 03:37:17;;;;;;;3.63;1.75;;;;;;;4.43;100.00;99071.25;4157944;28;20045;-70
2023/06/03 03:39:17;;;;;;;3.15;1.70;;;;;;;4.47;100.00;99066.75;4157748;28;20049;-70
2023/06/03 03:41:18;;;;;;;4.72;1.60;;;;;;;4.47;100.00;99064.03;4158069;28;20052;-70
2023/06/03 03:43:19;;;;;;;5.38;1.60;;;;;;;4.51;100.00;99062.22;4157121;28;20389;-70
2023/06/03 03:45:22;;;;;;;3.05;1.77;;;;;;;4.51;100.00;99064.97;4157180;28;20037;-70
2023/06/03 03:47:23;;;;;;;2.67;1.40;;;;;;;4.53;100.00;99062.72;4157230;28;20095;-70
2023/06/03 03:49:28;;;;;;;2.72;1.30;;;;;;;4.51;100.00;99062.22;4158223;28;20049;-70
2023/06/03 03:51:28;;;;;;;7.63;2.00;;;;;;;4.57;100.00;99060.16;4157950;28;20037;-70
2023/06/03 03:53:35;;;;;;;2.45;1.45;;;;;;;4.58;100.00;99059.81;4156771;28;20195;-70
2023/06/03 03:55:40;;;;;;;3.25;1.50;;;;;;;4.61;100.00;99064.63;4157832;28;20057;-70
2023/06/03 03:57:41;;;;;;;2.40;1.67;;;;;;;4.64;100.00;99071.44;4157409;28;20053;-70
2023/06/03 03:59:42;;;;;;;6.60;1.55;;;;;;;4.71;100.00;99058.00;4157344;28;20053;-70
2023/06/03 04:01:43;;;;;;;10.35;2.25;;;;;;;4.73;100.00;99064.78;4158677;28;20033;-70
2023/06/03 04:03:45;;;;;;;3.10;1.70;;;;;;;4.76;100.00;99069.63;4156908;28;20050;-70
2023/06/03 04:05:46;;;;;;;;;;;;;;;4.86;100.00;99075.88;4157949;28;20088;-70
2023/06/03 04:07:48;;;;;;;3.05;1.20;;;;;;;4.94;100.00;99066.84;4157310;28;19917;-70
2023/06/03 04:09:48;;;;;;;2.25;1.40;;;;;;;4.95;100.00;99069.25;4156949;28;20163;-70
2023/06/03 04:11:49;;;;;;;4.15;1.60;;;;;;;4.97;100.00;99072.50;4157464;28;20160;-70
2023/06/03 04:13:50;;;;;;;2.25;1.42;;;;;;;5.04;100.00;99072.78;4156427;28;20312;-70
2023/06/03 04:15:51;;;;;;;3.92;1.70;;;;;;;5.08;100.00;99071.00;4158064;28;20461;-70
2023/06/03 04:17:51;;;;;;;8.25;1.40;;;;;;;5.12;100.00;99082.09;4157404;28;20052;-70
2023/06/03 04:19:52;;;;;;;2.00;1.58;;;;;;;5.17;100.00;99076.47;4157371;28;20107;-70
2023/06/03 04:21:52;;;;;;;3.55;1.50;;;;;;;5.25;100.00;99083.84;4159577;28;20069;-70
2023/06/03 04:23:53;;;;;;;3.00;1.45;;;;;;;5.29;100.00;99084.00;4156903;28;20087;-70
2023/06/03 04:25:53;;;;;;;1.63;1.20;;;;;;;5.33;100.00;99079.47;4157455;28;20577;-70
2023/06/03 04:27:54;;;;;;;8.75;1.45;;;;;;;5.41;100.00;99083.31;4157548;28;20040;-70
2023/06/03 04:29:55;;;;;;;1.27;1.05;;;;;;;5.44;100.00;99080.72;4157530;28;20170;-70
2023/06/03 04:31:56;;;;;;;2.38;1.40;;;;;;;5.50;100.00;99084.88;4157390;28;20064;-70
2023/06/03 04:33:56;;;;;;;6.35;1.90;;;;;;;5.55;100.00;99087.47;4156763;28;20042;-70
2023/06/03 04:35:56;;;;;;;2.25;1.38;;;;;;;5.62;100.00;99090.47;4157603;28;20405;-70
2023/06/03 04:37:58;;;;;;;3.88;1.30;;;;;;;5.68;100.00;99091.09;4157701;28;20041;-70
2023/06/03 04:39:58;;;;;;;2.45;1.40;;;;;;;5.79;100.00;99097.00;4152457;28;20045;-70
2023/06/03 04:42:02;;;;;;;2.17;1.30;;;;;;;5.91;100.00;99100.69;4160248;28;20045;-70
2023/06/03 04:44:03;;;;;;;2.15;1.30;;;;;;;6.02;100.00;99109.34;4158947;28;20124;-70
2023/06/03 04:46:05;;;;;;;2.33;1.40;;;;;;;6.15;100.00;99102.00;4158834;28;20064;-70
2023/06/03 04:48:05;;;;;;;3.85;1.88;;;;;;;6.24;100.00;99101.97;4160479;28;20030;-70
2023/06/03 04:50:06;;;;;;;2.20;1.45;;;;;;;6.39;100.00;99106.84;4160426;28;20156;-70
2023/06/03 04:52:10;;;;;;;3.55;1.50;;;;;;;6.48;100.00;99105.66;4160724;28;20037;-70
2023/06/03 04:54:11;;;;;;;3.88;1.58;;;;;;;6.61;100.00;99098.25;4159008;28;20044;-70
2023/06/03 04:56:12;;;;;;;2.80;1.30;;;;;;;6.68;100.00;99101.25;4157646;28;20046;-70
2023/06/03 04:58:13;;;;;;;5.60;1.90;;;;;;;6.80;100.00;99094.22;4158311;28;20017;-70
2023/06/03 05:00:18;;;;;;;1.45;1.20;;;;;;;6.91;100.00;99098.16;4160121;28;20426;-70
2023/06/03 05:02:20;;;;;;;5.28;1.67;;;;;;;7.01;100.00;99093.03;4160177;28;20025;-70
2023/06/03 05:04:22;;;;;;;3.42;1.23;;;;;;;7.09;100.00;99094.06;4158783;28;20071;-70
2023/06/03 05:06:23;;;;;;;2.72;1.65;;;;;;;7.20;99.69;99094.44;4158521;28;20107;-70
2023/06/03 05:08:23;;;;;;;2.95;1.42;;;;;;;7.29;100.00;99095.97;4159832;28;20084;-70
2023/06/03 05:10:24;;;;;;;2.72;1.48;;;;;;;7.36;99.87;99092.63;4160028;28;20049;-70
2023/06/03 05:12:24;;;;;;;2.13;1.45;;;;;;;7.46;99.45;99085.91;4159321;28;20050;-70
2023/06/03 05:14:25;;;;;;;2.97;1.25;;;;;;;7.57;99.97;99089.81;4159331;28;20431;-70
2023/06/03 05:16:25;;;;;;;3.58;1.40;;;;;;;7.66;99.26;99081.44;4159687;28;20049;-70
2023/06/03 05:18:26;;;;;;;2.88;1.30;;;;;;;7.74;98.87;99080.53;4158482;28;20037;-70
2023/06/03 05:20:26;;;;;;;3.08;1.45;;;;;;;7.85;99.20;99076.94;4158436;28;20042;-70
2023/06/03 05:22:26;;;;;;;2.10;1.40;;;;;;;7.95;97.91;99083.97;4159136;28;20056;-70
2023/06/03 05:24:26;;;;;;;2.25;1.30;;;;;;;8.03;97.35;99080.28;4156268;28;20045;-70
2023/06/03 05:26:27;;;;;;;2.30;1.35;;;;;;;8.14;96.81;99081.41;4157678;28;20034;-70
2023/06/03 05:28:28;;;;;;;3.67;1.48;;;;;;;8.21;95.34;99083.59;4159480;28;20113;-70
2023/06/03 05:30:28;;;;;;;2.75;1.50;;;;;;;8.25;94.76;99078.97;4159466;28;20033;-70
2023/06/03 05:32:28;;;;;;;2.13;1.40;;;;;;;8.33;94.59;99079.97;4156231;28;20041;-70
2023/06/03 05:34:29;;;;;;;2.20;1.30;;;;;;;8.40;92.79;99081.03;4154423;28;20517;-70
2023/06/03 05:36:29;;;;;;;2.65;1.10;;;;;;;8.44;90.08;99081.97;4153888;28;20041;-70
2023/06/03 05:38:30;;;;;;;4.70;1.45;;;;;;;8.50;90.74;99081.69;4154694;28;20470;-70
2023/06/03 05:40:30;;;;;;;2.88;1.60;;;;;;;8.46;89.21;99087.13;4155400;28;20490;-70
2023/06/03 05:42:31;;;;;;;2.78;1.50;;;;;;;8.53;89.97;99083.78;4155823;28;20052;-70
2023/06/03 05:44:31;;;;;;;3.75;1.10;;;;;;;8.60;90.14;99086.72;4156969;28;20420;-70
2023/06/03 05:46:32;;;;;;;1.55;1.15;;;;;;;8.67;91.70;99076.69;4150231;28;20360;-69
2023/06/03 05:48:32;;;;;;;3.10;1.30;;;;;;;8.74;89.94;99076.09;4148765;28;20139;-69
2023/06/03 05:50:36;;;;;;;6.30;1.30;;;;;;;8.83;91.10;99082.25;4149160;28;20037;-69
2023/06/03 05:52:37;;;;;;;2.47;1.20;;;;;;;8.87;87.38;99074.09;4150713;28;20107;-69
2023/06/03 05:54:37;;;;;;;2.08;1.70;;;;;;;8.88;86.37;99073.72;4158370;28;20046;-68
2023/06/03 05:56:37;;;;;;;4.35;1.20;;;;;;;8.94;88.56;99069.56;4159820;28;20038;-68
2023/06/03 05:58:40;;;;;;;2.50;1.27;;;;;;;9.02;85.68;99084.38;4128601;28;20057;-69
2023/06/03 06:00:41;;;;;;;2.97;1.20;;;;;;;9.05;84.64;99089.19;4170469;28;20044;-69
2023/06/03 06:02:41;;;;;;;3.17;1.40;;;;;;;9.11;84.27;99092.50;4141934;28;20053;-69
2023/06/03 06:04:42;;;;;;;1.60;1.20;;;;;;;9.10;83.96;99082.56;4145040;28;20054;-69
2023/06/03 06:06:42;;;;;;;3.80;1.58;;;;;;;9.11;83.69;99089.72;4143827;28;20034;-68
2023/06/03 06:08:43;;;;;;;1.92;1.20;;;;;;;9.09;83.86;99086.50;4141903;28;20045;-69
2023/06/03 06:10:43;;;;;;;2.90;1.40;;;;;;;9.11;85.03;99081.44;4142446;28;20073;-69
2023/06/03 06:12:43;;;;;;;5.05;1.55;;;;;;;9.19;86.12;99078.53;4141090;28;20049;-68
2023/06/03 06:14:44;;;;;;;2.63;1.30;;;;;;;9.25;83.29;99081.81;4141693;28;20050;-68
2023/06/03 06:16:44;;;;;;;3.25;1.27;;;;;;;9.29;83.12;99080.75;4142603;28;20085;-69
2023/06/03 06:18:45;;;;;;;2.92;1.70;;;;;;;9.29;83.91;99072.47;4142883;28;20042;-69
2023/06/03 06:20:48;;;;;;;2.47;1.40;;;;;;;9.37;82.68;99075.41;4148697;28;20211;-69
2023/06/03 06:22:49;;;;;;;5.45;1.17;;;;;;;9.34;82.96;99082.44;4156917;28;20038;-69
2023/06/03 06:24:49;;;;;;;3.92;1.67;;;;;;;9.39;84.09;99078.63;4158730;28;20088;-69
2023/06/03 06:26:51;;;;;;;3.13;1.38;;;;;;;9.49;85.47;99078.88;4158623;28;20462;-69
2023/06/03 06:28:51;;;;;;;2.88;1.40;;;;;;;9.55;83.49;99079.44;4158372;28;20382;-69
2023/06/03 06:30:53;;;;;;;2.85;1.48;;;;;;;9.63;83.89;99075.69;4157992;28;20064;-69
2023/06/03 06:32:54;;;;;;;2.38;1.60;;;;;;;9.71;85.71;99077.47;4156746;28;20104;-69
2023/06/03 06:34:54;;;;;;;2.30;1.20;;;;;;;9.83;83.11;99080.13;4157783;28;20108;-69
2023/06/03 06:36:54;;;;;;;3.95;2.65;;;;;;;9.87;83.35;99077.44;4158410;28;20047;-69
2023/06/03 06:38:55;;;;;;;3.97;1.52;;;;;;;9.90;82.81;99084.22;4158136;28;20041;-69
2023/06/03 06:40:56;;;;;;;4.38;1.60;;;;;;;9.89;82.91;99091.72;4158337;28;20046;-69
2023/06/03 06:42:56;;;;;;;4.80;1.83;;;;;;;9.87;80.80;99094.03;4157078;28;20096;-69
2023/06/03 06:44:58;;;;;;;2.25;1.40;;;;;;;9.82;80.98;99089.56;4158357;28;20045;-69
2023/06/03 06:46:58;;;;;;;3.53;1.50;;;;;;;9.89;80.48;99093.66;4159098;28;20057;-69
2023/06/03 06:48:58;;;;;;;3.00;1.20;;;;;;;9.96;81.71;99093.84;4159089;28;20112;-69
2023/06/03 06:50:59;;;;;;;2.22;1.45;;;;;;;10.04;81.78;99087.31;4157821;28;20049;-69
2023/06/03 06:53:01;;;;;;;1.80;1.30;;;;;;;10.08;81.13;99082.66;4157419;28;20048;-69
2023/06/03 06:55:01;;;;;;;2.70;1.50;;;;;;;10.22;84.35;99085.78;4158608;28;20121;-69
2023/06/03 06:57:02;;;;;;;4.70;1.77;;;;;;;10.36;84.54;99085.31;4157549;28;20520;-69
2023/06/03 06:59:02;;;;;;;5.40;1.65;;;;;;;10.37;78.73;99082.19;4157909;28;21439;-69
2023/06/03 07:01:05;;;;;;;2.65;1.20;;;;;;;10.40;79.29;99075.13;4157945;28;20168;-69
2023/06/03 07:03:12;;;;;;;2.90;1.48;;;;;;;10.46;80.23;99084.75;4156382;28;20472;-69
2023/06/03 07:05:13;;;;;;;2.22;1.30;;;;;;;10.52;81.29;99082.50;4157910;28;20053;-69
2023/06/03 07:07:14;;;;;;;3.10;1.40;;;;;;;10.62;81.74;99082.72;4157709;28;20050;-69
2023/06/03 07:09:14;;;;;;;2.75;1.30;;;;;;;10.67;81.63;99087.97;4157204;28;20125;-69
2023/06/03 07:11:14;;;;;;;3.55;1.70;;;;;;;10.68;80.09;99088.78;4157938;28;20033;-68
2023/06/03 07:13:15;;;;;;;2.97;1.55;;;;;;;10.67;82.03;99087.13;4157298;28;20068;-69
2023/06/03 07:15:15;;;;;;;3.40;1.85;;;;;;;10.71;80.40;99093.56;4157627;28;20041;-69
2023/06/03 07:17:16;;;;;;;2.63;1.67;;;;;;;10.62;80.51;99090.22;4159271;28;20084;-69
2023/06/03 07:19:16;;;;;;;4.95;1.60;;;;;;;10.67;80.79;99090.72;4158022;28;20123;-69
2023/06/03 07:21:16;;;;;;;2.72;1.60;;;;;;;10.72;80.04;99091.59;4157895;28;20059;-69
2023/06/03 07:23:35;;;;;;;3.63;1.63;;;;;;;10.84;80.69;99092.25;4157071;28;20076;-69
2023/06/03 07:25:50;;;;;;;3.00;1.70;;;;;;;10.85;79.87;99091.09;4157160;28;20375;-69
2023/06/03 07:27:50;;;;;;;2.25;1.52;;;;;;;10.90;80.77;99093.56;4157257;28;20041;-69
2023/06/03 07:29:56;;;;;;;3.83;1.60;;;;;;;11.01;80.14;99096.56;4157468;28;20478;-69
2023/06/03 07:31:56;;;;;;;5.75;1.73;;;;;;;11.14;81.39;99091.63;4158072;28;20095;-69
2023/06/03 07:33:57;;;;;;;2.17;1.40;;;;;;;11.22;79.34;99087.84;4157294;28;20433;-69
2023/06/03 07:35:59;;;;;;;3.22;1.75;;;;;;;11.17;78.55;99096.44;4157895;28;20060;-69
2023/06/03 07:37:59;;;;;;;3.92;1.88;;;;;;;11.24;78.94;99099.34;4157440;28;20033;-69
2023/06/03 07:39:59;;;;;;;5.35;1.58;;;;;;;11.25;79.31;99096.22;4157448;28;20045;-69
2023/06/03 07:42:00;;;;;;;7.15;2.08;;;;;;;11.36;80.74;99099.19;4157799;28;20128;-69
2023/06/03 07:44:00;;;;;;;2.10;1.45;;;;;;;11.42;79.08;99094.13;4157091;28;20056;-69
2023/06/03 07:46:08;;;;;;;2.55;1.77;;;;;;;11.47;79.51;99099.38;4157696;28;20095;-70
2023/06/03 07:48:14;;;;;;;3.92;1.73;;;;;;;11.53;77.65;99089.59;4159106;28;20076;-69
2023/06/03 07:50:26;;;;;;;4.03;1.60;;;;;;;11.53;77.49;99095.13;4157529;28;20034;-69
2023/06/03 07:52:32;;;;;;;3.17;1.65;;;;;;;11.56;78.04;99086.06;4157176;28;20056;-69
2023/06/03 07:54:34;;;;;;;3.00;1.60;;;;;;;11.57;78.32;99089.63;4157375;28;20037;-69
2023/06/03 07:56:34;;;;;;;2.50;1.80;;;;;;;11.52;77.61;99096.31;4157300;28;20052;-69
2023/06/03 07:58:36;;;;;;;3.72;1.50;;;;;;;11.60;79.31;99092.47;4157394;28;20041;-69
2023/06/03 08:00:42;;;;;;;2.70;1.83;;;;;;;11.68;76.79;99087.88;4157497;28;20497;-69
2023/06/03 08:02:44;;;;;;;4.07;1.77;;;;;;;11.78;78.43;99085.25;4157354;28;20124;-69
2023/06/03 08:04:45;;;;;;;5.10;1.60;;;;;;;11.86;77.35;99082.63;4157254;28;20033;-69
2023/06/03 08:06:46;;;;;;;4.65;1.73;;;;;;;11.94;79.46;99074.06;4155257;28;20080;-69
2023/06/03 08:08:46;;;;;;;3.08;1.52;;;;;;;12.02;76.10;99075.75;4156843;28;20034;-69
2023/06/03 08:10:47;;;;;;;6.15;2.03;;;;;;;12.04;75.51;99083.69;4157518;28;20144;-69
2023/06/03 08:12:48;;;;;;;3.42;1.83;;;;;;;11.97;75.77;99089.94;4156385;28;20541;-69
2023/06/03 08:14:48;;;;;;;3.10;1.50;;;;;;;12.05;77.06;99083.31;4158058;28;20112;-69
2023/06/03 08:16:50;;;;;;;2.35;1.67;;;;;;;12.09;77.49;99077.84;4160900;28;20536;-69
2023/06/03 08:18:54;;;;;;;8.30;1.90;;;;;;;12.07;75.92;99080.16;4160540;28;20037;-69
2023/06/03 08:20:55;;;;;;;2.70;1.20;;;;;;;12.18;77.42;99081.16;4160098;28;20045;-69
2023/06/03 08:22:56;;;;;;;4.05;1.80;;;;;;;12.34;77.98;99076.22;4159848;28;20053;-69
2023/06/03 08:24:57;;;;;;;10.32;2.33;;;;;;;12.44;76.15;99079.53;4160491;28;20137;-69
2023/06/03 08:26:57;;;;;;;5.65;2.40;;;;;;;12.59;75.52;99081.31;4160417;28;20068;-69
2023/06/03 08:28:58;;;;;;;5.53;1.92;;;;;;;12.59;74.72;99070.22;4160241;28;20389;-69
2023/06/03 08:30:58;;;;;;;6.47;1.75;;;;;;;12.68;76.26;99067.16;4160311;28;20052;-69
2023/06/03 08:32:59;;;;;;;4.03;2.20;;;;;;;12.83;77.67;99075.28;4159660;28;20623;-69
2023/06/03 08:34:59;;;;;;;3.75;1.75;;;;;;;12.94;75.85;99069.84;4160212;28;20052;-69
2023/06/03 08:36:59;;;;;;;4.00;2.10;;;;;;;12.93;73.76;99074.59;4160439;28;20402;-69
2023/06/03 08:39:00;;;;;;;2.85;1.63;;;;;;;12.93;73.87;99079.34;4160563;28;20053;-69
2023/06/03 08:41:00;;;;;;;4.13;1.77;;;;;;;13.01;75.82;99081.03;4159957;28;20052;-69
2023/06/03 08:43:03;;;;;;;3.45;1.60;;;;;;;13.07;75.47;99079.50;4159322;28;20076;-69
2023/06/03 08:45:05;;;;;;;;;;;;;;;13.03;75.29;99069.53;4160583;28;20041;-69
2023/06/03 08:47:28;;;;;;;2.70;1.90;;;;;;;13.10;75.48;99077.97;4160327;28;19956;-69
2023/06/03 08:49:57;;;;;;;3.40;2.00;;;;;;;13.19;76.05;99073.72;4159864;28;20056;-69
2023/06/03 08:51:59;;;;;;;5.07;2.40;;;;;;;13.31;74.08;99074.63;4160177;28;20195;-69
2023/06/03 08:53:59;;;;;;;6.10;2.38;;;;;;;13.42;76.03;99076.34;4158967;28;20057;-69
2023/06/03 08:56:02;;;;;;;10.95;2.40;;;;;;;13.57;74.62;99080.06;4159937;28;20458;-69
2023/06/03 08:58:22;;;;;;;2.70;1.90;;;;;;;13.54;73.67;99080.00;4159856;28;20085;-69
2023/06/03 09:00:26;;;;;;;4.70;1.88;;;;;;;13.47;73.75;99073.19;4116561;28;20045;-69
2023/06/03 09:02:28;;;;;;;3.92;2.58;;;;;;;13.56;73.86;99072.88;4142850;28;20042;-69
2023/06/03 09:04:29;;;;;;;4.50;2.20;;;;;;;13.66;74.95;99074.19;4141777;28;20096;-69
2023/06/03 09:06:30;;;;;;;3.55;2.13;;;;;;;13.73;74.28;99072.22;4143602;28;20058;-69
2023/06/03 09:08:31;;;;;;;4.13;2.00;;;;;;;13.76;73.95;99065.13;4143180;28;20041;-69
2023/06/03 09:10:32;;;;;;;4.05;2.20;;;;;;;13.85;74.24;99062.81;4143230;28;20137;-69
2023/06/03 09:12:34;;;;;;;4.22;2.40;;;;;;;13.90;75.21;99056.06;4142312;28;20037;-69
2023/06/03 09:14:35;;;;;;;5.55;2.08;;;;;;;14.06;73.59;99054.59;4143469;28;20042;-69
2023/06/03 09:16:36;;;;;;;3.53;2.22;;;;;;;14.13;73.68;99053.03;4143351;28;20134;-69
2023/06/03 09:18:37;;;;;;;4.85;2.40;;;;;;;13.98;73.00;99052.97;4142995;28;20129;-69
2023/06/03 09:20:38;;;;;;;4.72;2.50;;;;;;;13.92;73.12;99046.16;4142828;28;20046;-69
2023/06/03 09:22:42;;;;;;;3.05;2.28;;;;;;;13.87;72.61;99040.94;4142744;28;20083;-69
2023/06/03 09:24:42;;;;;;;8.23;2.38;;;;;;;14.02;76.06;99048.22;4143177;28;20037;-69
2023/06/03 09:26:42;;;;;;;3.88;2.22;;;;;;;14.14;73.91;99043.50;4148539;28;20155;-69
2023/06/03 09:28:45;;;;;;;4.68;2.63;;;;;;;14.32;73.25;99047.22;4159978;28;20285;-69
2023/06/03 09:30:45;;;;;;;6.03;2.53;;;;;;;14.45;73.59;99028.19;4159558;28;20124;-69
2023/06/03 09:32:45;;;;;;;3.22;2.00;;;;;;;14.50;74.53;99038.97;4158162;28;20512;-69
2023/06/03 09:34:46;;;;;;;6.18;2.20;;;;;;;14.62;72.54;99033.06;4159330;28;20522;-69